createdAt,value
2022-08-02T00:00:59.383Z,4.38
2022-08-02T00:03:27.506Z,4.40
2022-08-02T00:05:57.024Z,4.53
2022-08-02T00:08:25.152Z,3.95
2022-08-02T00:10:53.222Z,3.90
2022-08-02T00:13:21.363Z,3.85
2022-08-02T00:15:49.470Z,4.10
2022-08-02T00:18:17.725Z,4.50
2022-08-02T00:20:45.914Z,4.00
2022-08-02T00:23:15.426Z,4.18
2022-08-02T00:25:55.115Z,3.95
2022-08-02T00:28:27.662Z,4.10
2022-08-02T00:30:57.404Z,4.13
2022-08-02T00:34:27.583Z,3.97
2022-08-02T00:36:13.936Z,3.95
2022-08-02T00:38:43.504Z,4.20
2022-08-02T00:41:16.347Z,4.22
2022-08-02T00:43:44.513Z,4.10
2022-08-02T00:46:12.639Z,3.83
2022-08-02T00:48:41.477Z,4.00
2022-08-02T00:51:11.374Z,4.00
2022-08-02T00:53:39.552Z,3.95
2022-08-02T00:56:09.038Z,4.00
2022-08-02T00:58:37.651Z,3.60
2022-08-02T01:01:05.890Z,4.07
2022-08-02T01:03:34.078Z,4.10
2022-08-02T01:06:17.429Z,4.22
2022-08-02T01:08:45.553Z,3.97
2022-08-02T01:11:15.027Z,3.97
2022-08-02T01:13:43.128Z,4.03
2022-08-02T01:16:14.998Z,3.92
2022-08-02T01:18:45.249Z,3.80
2022-08-02T01:21:19.640Z,3.90
2022-08-02T01:23:57.309Z,4.10
2022-08-02T01:26:36.471Z,4.10
2022-08-02T01:29:08.517Z,4.18
2022-08-02T01:31:39.571Z,4.03
2022-08-02T01:34:10.849Z,4.00
2022-08-02T01:36:40.155Z,4.00
2022-08-02T01:39:08.795Z,4.30
2022-08-02T01:41:36.971Z,3.70
2022-08-02T01:44:06.537Z,3.90
2022-08-02T01:46:34.810Z,3.88
2022-08-02T01:49:04.474Z,3.95
2022-08-02T01:51:54.626Z,3.63
2022-08-02T01:54:23.332Z,4.00
2022-08-02T01:56:51.437Z,4.10
2022-08-02T01:59:22.917Z,3.75
2022-08-02T02:01:52.399Z,3.95
2022-08-02T02:04:20.676Z,3.90
2022-08-02T02:06:48.819Z,4.00
2022-08-02T02:09:17.090Z,3.92
2022-08-02T02:12:09.478Z,4.05
2022-08-02T02:14:35.053Z,4.20
2022-08-02T02:17:03.433Z,3.90
2022-08-02T02:19:31.524Z,3.75
2022-08-02T02:21:59.624Z,4.18
2022-08-02T02:24:29.764Z,3.83
2022-08-02T02:26:58.390Z,4.30
2022-08-02T02:29:27.062Z,3.70
2022-08-02T02:31:56.571Z,3.72
2022-08-02T02:34:27.782Z,4.15
2022-08-02T02:36:55.984Z,4.28
2022-08-02T02:39:25.933Z,4.22
2022-08-02T02:41:54.369Z,4.28
2022-08-02T02:44:22.636Z,4.05
2022-08-02T02:46:52.769Z,4.18
2022-08-02T02:49:22.355Z,4.18
2022-08-02T02:51:50.597Z,3.90
2022-08-02T02:54:32.123Z,4.05
2022-08-02T02:57:03.793Z,4.03
2022-08-02T02:59:31.926Z,4.05
2022-08-02T03:02:00.115Z,4.00
2022-08-02T03:04:55.434Z,3.70
2022-08-02T03:07:18.217Z,3.80
2022-08-02T03:09:47.979Z,3.92
2022-08-02T03:12:30.284Z,4.07
2022-08-02T03:15:00.083Z,4.00
2022-08-02T03:17:38.003Z,3.95
2022-08-02T03:20:11.749Z,4.28
2022-08-02T03:22:39.930Z,4.00
2022-08-02T03:25:09.055Z,3.97
2022-08-02T03:27:37.181Z,4.30
2022-08-02T03:30:06.746Z,4.15
2022-08-02T03:32:35.043Z,4.03
2022-08-02T03:35:03.227Z,3.83
2022-08-02T03:37:32.727Z,3.92
2022-08-02T03:40:00.940Z,3.90
2022-08-02T03:42:29.167Z,4.32
2022-08-02T03:44:57.343Z,4.20
2022-08-02T03:47:25.430Z,4.20
2022-08-02T03:49:53.551Z,4.10
2022-08-02T03:52:21.644Z,4.18
2022-08-02T03:54:51.133Z,3.92
2022-08-02T03:57:19.234Z,4.13
2022-08-02T03:59:47.592Z,4.25
2022-08-02T04:02:15.793Z,4.18
2022-08-02T04:04:43.996Z,4.22
2022-08-02T04:07:12.109Z,4.18
2022-08-02T04:09:40.346Z,4.22
2022-08-02T04:12:10.655Z,4.10
2022-08-02T04:14:38.952Z,4.28
2022-08-02T04:17:08.842Z,3.95
2022-08-02T04:19:39.437Z,4.10
2022-08-02T04:22:08.897Z,3.80
2022-08-02T04:24:39.299Z,4.03
2022-08-02T04:27:49.829Z,4.20
2022-08-02T04:29:56.984Z,4.10
2022-08-02T04:32:25.093Z,3.92
2022-08-02T04:35:21.265Z,4.22
2022-08-02T04:38:09.293Z,4.20
2022-08-02T04:40:29.541Z,4.32
2022-08-02T04:42:57.684Z,4.30
2022-08-02T04:45:27.456Z,3.80
2022-08-02T04:48:04.508Z,4.00
2022-08-02T04:50:33.304Z,4.10
2022-08-02T04:53:01.434Z,4.00
2022-08-02T04:55:30.050Z,4.20
2022-08-02T04:57:58.716Z,3.90
2022-08-02T05:00:28.897Z,4.00
2022-08-02T05:02:57.538Z,4.07
2022-08-02T05:05:25.781Z,4.22
2022-08-02T05:07:53.901Z,3.75
2022-08-02T05:10:22.222Z,4.32
2022-08-02T05:12:50.339Z,3.97
2022-08-02T05:15:19.086Z,3.95
2022-08-02T05:17:49.103Z,4.00
2022-08-02T05:20:17.359Z,4.50
2022-08-02T05:22:45.520Z,4.32
2022-08-02T05:25:13.796Z,3.83
2022-08-02T05:27:41.937Z,4.03
2022-08-02T05:30:10.856Z,3.95
2022-08-02T05:32:45.160Z,4.47
2022-08-02T05:35:14.713Z,3.90
2022-08-02T05:37:43.098Z,4.00
2022-08-02T05:40:12.668Z,3.53
2022-08-02T05:42:41.576Z,3.90
2022-08-02T05:45:10.319Z,3.72
2022-08-02T05:47:38.542Z,4.00
2022-08-02T05:50:07.917Z,3.80
2022-08-02T05:52:46.941Z,3.80
2022-08-02T05:55:18.221Z,3.95
2022-08-02T05:57:53.572Z,3.80
2022-08-02T06:00:22.130Z,4.10
2022-08-02T06:03:16.726Z,3.92
2022-08-02T06:05:50.875Z,3.90
2022-08-02T06:08:20.643Z,4.10
2022-08-02T06:10:49.027Z,3.83
2022-08-02T06:13:17.453Z,3.90
2022-08-02T06:15:52.692Z,3.63
2022-08-02T06:18:28.253Z,3.83
2022-08-02T06:22:29.989Z,3.80
2022-08-02T06:23:58.758Z,3.85
2022-08-02T06:26:27.761Z,3.78
2022-08-02T06:28:56.547Z,3.78
2022-08-02T06:31:24.675Z,3.70
2022-08-02T06:33:52.916Z,3.80
2022-08-02T06:36:23.221Z,3.22
2022-08-02T06:38:56.146Z,3.88
2022-08-02T06:41:24.720Z,3.55
2022-08-02T06:43:55.545Z,3.35
2022-08-02T06:46:37.619Z,3.40
2022-08-02T06:49:11.828Z,3.65
2022-08-02T06:51:39.983Z,3.38
2022-08-02T06:54:09.602Z,3.40
2022-08-02T06:56:37.713Z,3.30
2022-08-02T06:59:06.431Z,3.42
2022-08-02T07:01:38.623Z,3.17
2022-08-02T07:04:07.335Z,3.30
2022-08-02T07:06:35.452Z,3.40
2022-08-02T07:09:20.892Z,3.20
2022-08-02T07:11:50.768Z,3.13
2022-08-02T07:14:18.905Z,3.20
2022-08-02T07:16:47.046Z,3.10
2022-08-02T07:19:15.162Z,3.08
2022-08-02T07:21:56.638Z,3.05
2022-08-02T07:24:27.489Z,3.15
2022-08-02T07:27:10.777Z,3.00
2022-08-02T07:29:44.891Z,3.13
2022-08-02T07:32:14.085Z,3.05
2022-08-02T07:34:42.721Z,3.00
2022-08-02T07:37:25.620Z,2.95
2022-08-02T07:40:02.939Z,2.90
2022-08-02T07:42:35.990Z,2.95
2022-08-02T07:45:04.221Z,2.85
2022-08-02T07:47:32.326Z,3.78
2022-08-02T07:50:01.963Z,3.10
2022-08-02T07:52:36.503Z,3.20
2022-08-02T07:55:05.363Z,3.65
2022-08-02T07:57:34.918Z,3.60
2022-08-02T08:00:03.129Z,3.92
2022-08-02T08:02:39.715Z,4.07
2022-08-02T08:05:08.747Z,4.18
2022-08-02T08:07:36.883Z,4.38
2022-08-02T08:10:05.755Z,5.10
2022-08-02T08:12:35.356Z,4.68
2022-08-02T08:15:03.512Z,4.90
2022-08-02T08:17:31.696Z,4.68
2022-08-02T08:19:59.885Z,5.00
2022-08-02T08:22:28.072Z,5.45
2022-08-02T08:24:56.167Z,6.13
2022-08-02T08:27:24.308Z,4.82
2022-08-02T08:29:53.765Z,6.50
2022-08-02T08:32:22.052Z,5.10
2022-08-02T08:34:51.347Z,5.20
2022-08-02T08:37:19.475Z,7.50
2022-08-02T08:39:56.878Z,8.05
2022-08-02T08:42:25.946Z,7.47
2022-08-02T08:44:56.080Z,8.00
2022-08-02T08:47:24.287Z,7.63
2022-08-02T08:49:53.838Z,7.30
2022-08-02T08:52:22.077Z,7.05
2022-08-02T08:54:50.189Z,7.22
2022-08-02T08:57:19.641Z,6.90
2022-08-02T08:59:47.727Z,6.72
2022-08-02T09:02:20.590Z,6.55
2022-08-02T09:04:54.673Z,6.25
2022-08-02T09:07:23.704Z,5.70
2022-08-02T09:09:51.821Z,5.60
2022-08-02T09:12:22.433Z,5.82
2022-08-02T09:14:50.765Z,5.47
2022-08-02T09:17:21.887Z,5.20
2022-08-02T09:19:50.270Z,5.68
2022-08-02T09:22:18.390Z,5.13
2022-08-02T09:24:47.384Z,4.50
2022-08-02T09:27:16.207Z,4.95
2022-08-02T09:30:12.728Z,4.30
2022-08-02T09:32:46.690Z,4.70
2022-08-02T09:35:15.300Z,4.28
2022-08-02T09:37:48.346Z,4.22
2022-08-02T09:40:16.814Z,4.13
2022-08-02T09:42:58.824Z,4.15
2022-08-02T09:45:32.291Z,4.03
2022-08-02T09:48:02.773Z,4.07
2022-08-02T09:50:30.931Z,3.60
2022-08-02T09:52:59.056Z,3.88
2022-08-02T09:55:27.214Z,3.80
2022-08-02T09:57:55.373Z,3.58
2022-08-02T10:00:50.378Z,3.25
2022-08-02T10:03:21.457Z,3.58
2022-08-02T10:05:54.033Z,3.75
2022-08-02T10:08:27.394Z,3.08
2022-08-02T10:11:01.434Z,3.70
2022-08-02T10:13:30.843Z,3.20
2022-08-02T10:15:59.056Z,3.58
2022-08-02T10:18:38.922Z,3.30
2022-08-02T10:21:09.034Z,3.25
2022-08-02T10:23:37.606Z,3.60
2022-08-02T10:26:05.920Z,3.08
2022-08-02T10:28:34.063Z,2.92
2022-08-02T10:31:04.714Z,3.20
2022-08-02T10:33:34.910Z,2.92
2022-08-02T10:36:04.571Z,2.92
2022-08-02T10:38:36.027Z,3.10
2022-08-02T10:41:04.181Z,3.03
2022-08-02T10:43:49.046Z,3.25
2022-08-02T10:46:38.026Z,3.10
2022-08-02T10:52:09.715Z,3.03
2022-08-02T10:54:39.822Z,2.97
2022-08-02T10:57:22.133Z,3.22
2022-08-02T10:59:50.766Z,2.95
2022-08-02T11:02:35.577Z,3.10
2022-08-02T11:05:10.323Z,3.10
2022-08-02T11:07:40.157Z,3.00
2022-08-02T11:10:36.350Z,2.97
2022-08-02T11:13:09.367Z,2.97
2022-08-02T11:16:11.577Z,3.00
2022-08-02T11:19:06.485Z,2.90
2022-08-02T11:21:36.858Z,2.95
2022-08-02T11:24:28.298Z,2.70
2022-08-02T11:26:57.063Z,2.80
2022-08-02T11:29:38.529Z,2.97
2022-08-02T11:32:07.759Z,2.70
2022-08-02T11:34:37.858Z,2.78
2022-08-02T11:37:07.837Z,2.90
2022-08-02T11:39:36.088Z,2.78
2022-08-02T11:42:05.779Z,2.88
2022-08-02T11:44:41.663Z,2.53
2022-08-02T11:47:09.857Z,2.72
2022-08-02T11:49:38.515Z,2.90
2022-08-02T11:52:10.943Z,2.80
2022-08-02T11:54:40.714Z,2.90
2022-08-02T11:57:18.473Z,2.90
2022-08-02T11:59:49.623Z,3.10
2022-08-02T12:02:17.831Z,2.72
2022-08-02T12:04:53.412Z,2.72
2022-08-02T12:07:34.246Z,3.08
2022-08-02T12:10:03.751Z,3.10
2022-08-02T12:12:31.903Z,3.00
2022-08-02T12:15:00.007Z,2.40
2022-08-02T12:17:47.782Z,2.58
2022-08-02T12:20:17.219Z,2.70
2022-08-02T12:22:46.869Z,2.58
2022-08-02T12:25:33.493Z,3.10
2022-08-02T12:28:17.860Z,2.75
2022-08-02T12:30:57.855Z,2.88
2022-08-02T12:33:27.798Z,2.60
2022-08-02T12:35:55.918Z,2.60
2022-08-02T12:38:25.413Z,2.50
2022-08-02T12:40:54.191Z,2.85
2022-08-02T12:43:23.669Z,2.60
2022-08-02T12:45:53.293Z,2.60
2022-08-02T12:48:38.449Z,2.85
2022-08-02T12:51:24.902Z,2.40
2022-08-02T12:54:17.940Z,2.80
2022-08-02T12:56:46.508Z,3.03
2022-08-02T12:59:14.636Z,2.55
2022-08-02T13:01:42.818Z,2.80
2022-08-02T13:04:13.996Z,2.60
2022-08-02T13:06:45.597Z,3.00
2022-08-02T13:09:17.121Z,2.83
2022-08-02T13:11:45.590Z,2.90
2022-08-02T13:14:14.339Z,2.60
2022-08-02T13:16:43.186Z,2.42
2022-08-02T13:19:11.357Z,2.72
2022-08-02T13:21:41.730Z,2.70
2022-08-02T13:24:40.030Z,2.88
2022-08-02T13:27:17.170Z,2.80
2022-08-02T13:29:45.386Z,2.70
2022-08-02T13:32:14.319Z,2.60
2022-08-02T13:34:42.854Z,2.70
2022-08-02T13:37:10.968Z,2.60
2022-08-02T13:39:40.482Z,2.80
2022-08-02T13:42:09.255Z,2.60
2022-08-02T13:44:45.351Z,3.00
2022-08-02T13:47:13.581Z,2.58
2022-08-02T13:49:50.148Z,2.67
2022-08-02T13:52:19.847Z,2.63
2022-08-02T13:54:49.382Z,2.70
2022-08-02T13:57:17.556Z,2.58
2022-08-02T13:59:57.226Z,2.70
2022-08-02T14:02:28.196Z,3.10
2022-08-02T14:04:56.770Z,2.80
2022-08-02T14:07:24.929Z,2.90
2022-08-02T14:09:54.419Z,2.72
2022-08-02T14:12:22.529Z,3.00
2022-08-02T14:14:50.934Z,2.78
2022-08-02T14:17:19.827Z,2.80
2022-08-02T14:19:48.067Z,2.80
2022-08-02T14:22:16.186Z,2.75
2022-08-02T14:24:44.344Z,3.10
2022-08-02T14:27:13.827Z,3.00
2022-08-02T14:29:41.981Z,2.85
2022-08-02T14:32:10.698Z,2.80
2022-08-02T14:34:39.108Z,2.80
2022-08-02T14:37:07.384Z,2.45
2022-08-02T14:39:43.664Z,2.95
2022-08-02T14:42:25.054Z,2.50
2022-08-02T14:44:53.159Z,3.00
2022-08-02T14:47:21.318Z,3.10
2022-08-02T14:49:50.499Z,3.22
2022-08-02T14:52:19.294Z,3.55
2022-08-02T14:54:47.476Z,3.80
2022-08-02T14:57:15.672Z,3.72
2022-08-02T14:59:45.147Z,3.67
2022-08-02T15:02:14.192Z,3.75
2022-08-02T15:04:43.955Z,4.03
2022-08-02T15:07:13.365Z,3.70
2022-08-02T15:09:41.771Z,3.80
2022-08-02T15:12:10.726Z,3.80
2022-08-02T15:14:39.625Z,3.33
2022-08-02T15:17:09.323Z,3.60
2022-08-02T15:19:57.874Z,3.50
2022-08-02T15:22:25.689Z,3.50
2022-08-02T15:24:54.422Z,3.40
2022-08-02T15:27:22.785Z,3.60
2022-08-02T15:29:50.966Z,3.80
2022-08-02T15:32:20.520Z,3.80
2022-08-02T15:34:48.732Z,3.50
2022-08-02T15:37:16.957Z,3.20
2022-08-02T15:39:45.126Z,3.70
2022-08-02T15:42:13.578Z,3.50
2022-08-02T15:44:42.174Z,3.20
2022-08-02T15:47:10.310Z,3.63
2022-08-02T15:49:41.738Z,3.40
2022-08-02T15:52:11.210Z,3.28
2022-08-02T15:54:39.610Z,3.50
2022-08-02T15:57:07.828Z,3.50
2022-08-02T15:59:35.938Z,3.35
2022-08-02T16:02:04.516Z,3.25
2022-08-02T16:04:33.227Z,3.20
2022-08-02T16:07:02.727Z,3.08
2022-08-02T16:09:30.874Z,3.10
2022-08-02T16:11:58.986Z,3.22
2022-08-02T16:14:27.149Z,3.30
2022-08-02T16:16:56.193Z,3.47
2022-08-02T16:19:47.809Z,3.17
2022-08-02T16:22:16.128Z,3.17
2022-08-02T16:24:44.547Z,3.45
2022-08-02T16:27:12.707Z,3.40
2022-08-02T16:29:40.903Z,3.20
2022-08-02T16:32:09.584Z,3.10
2022-08-02T16:35:04.086Z,3.17
2022-08-02T16:37:27.423Z,3.10
2022-08-02T16:40:15.566Z,3.55
2022-08-02T16:42:50.314Z,3.38
2022-08-02T16:45:20.945Z,3.22
2022-08-02T16:47:54.922Z,2.95
2022-08-02T16:50:27.191Z,3.00
2022-08-02T16:52:57.847Z,3.40
2022-08-02T16:55:30.577Z,3.10
2022-08-02T16:57:59.192Z,3.38
2022-08-02T17:00:27.326Z,3.28
2022-08-02T17:05:55.776Z,3.20
2022-08-02T17:08:32.211Z,3.20
2022-08-02T17:11:03.330Z,3.15
2022-08-02T17:13:32.087Z,3.40
2022-08-02T17:16:20.332Z,3.00
2022-08-02T17:18:52.580Z,3.35
2022-08-02T17:21:20.723Z,3.10
2022-08-02T17:24:06.036Z,3.40
2022-08-02T17:26:36.462Z,3.20
2022-08-02T17:29:14.352Z,3.30
2022-08-02T17:32:05.557Z,3.20
2022-08-02T17:34:33.561Z,3.15
2022-08-02T17:37:01.731Z,3.13
2022-08-02T17:39:44.122Z,3.13
2022-08-02T17:42:20.278Z,3.28
2022-08-02T17:44:52.474Z,3.25
2022-08-02T17:47:20.726Z,3.20
2022-08-02T17:49:49.816Z,3.25
2022-08-02T17:52:52.418Z,3.55
2022-08-02T17:55:13.330Z,3.40
2022-08-02T17:57:57.234Z,3.10
2022-08-02T18:00:32.065Z,3.50
2022-08-02T18:03:06.147Z,3.38
2022-08-02T18:05:40.347Z,3.60
2022-08-02T18:08:24.944Z,3.28
2022-08-02T18:10:55.671Z,3.50
2022-08-02T18:13:24.059Z,3.53
2022-08-02T18:15:57.250Z,3.67
2022-08-02T18:18:30.116Z,3.60
2022-08-02T18:21:15.939Z,3.63
2022-08-02T18:23:48.737Z,3.75
2022-08-02T18:26:20.840Z,4.03
2022-08-02T18:28:49.274Z,3.50
2022-08-02T18:31:22.710Z,4.00
2022-08-02T18:33:59.555Z,3.58
2022-08-02T18:36:29.423Z,3.85
2022-08-02T18:38:58.197Z,3.75
2022-08-02T18:41:28.667Z,4.13
2022-08-02T18:43:56.909Z,4.20
2022-08-02T18:46:30.032Z,4.10
2022-08-02T18:49:06.613Z,3.75
2022-08-02T18:51:41.451Z,3.97
2022-08-02T18:54:09.955Z,3.97
2022-08-02T18:56:40.104Z,3.75
2022-08-02T18:59:08.351Z,4.30
2022-08-02T19:01:46.791Z,3.95
2022-08-02T19:04:27.881Z,4.00
2022-08-02T19:07:03.889Z,3.85
2022-08-02T19:09:35.817Z,3.80
2022-08-02T19:12:06.294Z,4.07
2022-08-02T19:14:35.061Z,3.90
2022-08-02T19:17:16.095Z,3.90
2022-08-02T19:19:51.530Z,3.90
2022-08-02T19:22:23.425Z,3.80
2022-08-02T19:25:01.002Z,4.40
2022-08-02T19:27:32.214Z,4.10
2022-08-02T19:30:20.323Z,4.15
2022-08-02T19:32:58.854Z,4.70
2022-08-02T19:35:30.583Z,4.90
2022-08-02T19:38:07.421Z,5.07
2022-08-02T19:40:35.795Z,5.00
2022-08-02T19:44:25.304Z,6.45
2022-08-02T19:45:57.110Z,6.68
2022-08-02T19:48:29.748Z,5.97
2022-08-02T19:51:01.018Z,5.97
2022-08-02T19:53:46.872Z,5.97
2022-08-02T19:56:20.330Z,5.72
2022-08-02T19:59:16.502Z,6.70
2022-08-02T20:01:48.827Z,6.80
2022-08-02T20:04:23.246Z,6.63
2022-08-02T20:06:52.443Z,7.13
2022-08-02T20:09:23.225Z,7.07
2022-08-02T20:11:54.248Z,6.97
2022-08-02T20:14:26.831Z,6.90
2022-08-02T20:16:56.910Z,7.60
2022-08-02T20:19:25.333Z,7.22
2022-08-02T20:22:00.020Z,7.78
2022-08-02T20:24:29.543Z,7.55
2022-08-02T20:26:59.168Z,7.35
2022-08-02T20:29:48.839Z,7.50
2022-08-02T20:32:23.297Z,7.18
2022-08-02T20:34:52.641Z,7.47
2022-08-02T20:38:00.170Z,7.10
2022-08-02T20:40:10.269Z,7.28
2022-08-02T20:42:47.520Z,7.50
2022-08-02T20:45:18.031Z,6.97
2022-08-02T20:47:50.792Z,7.45
2022-08-02T20:50:36.783Z,7.00
2022-08-02T20:53:05.630Z,6.88
2022-08-02T20:55:33.952Z,6.75
2022-08-02T20:58:02.868Z,7.03
2022-08-02T21:00:32.632Z,6.75
2022-08-02T21:03:00.877Z,7.32
2022-08-02T21:05:54.211Z,6.70
2022-08-02T21:08:21.234Z,6.47
2022-08-02T21:10:50.831Z,6.70
2022-08-02T21:13:22.355Z,6.97
2022-08-02T21:15:53.350Z,6.43
2022-08-02T21:18:32.710Z,6.57
2022-08-02T21:21:09.771Z,6.82
2022-08-02T21:23:38.300Z,6.75
2022-08-02T21:26:09.126Z,6.90
2022-08-02T21:28:43.411Z,7.18
2022-08-02T21:31:14.678Z,7.18
2022-08-02T21:36:33.475Z,7.18
2022-08-02T21:39:04.362Z,7.10
2022-08-02T21:41:39.499Z,7.80
2022-08-02T21:44:15.922Z,8.30
2022-08-02T21:46:46.606Z,7.90
2022-08-02T21:49:18.080Z,8.50
2022-08-02T21:51:49.234Z,10.18
2022-08-02T21:54:20.128Z,10.40
2022-08-02T21:56:49.495Z,9.70
2022-08-02T21:59:18.033Z,9.52
2022-08-02T22:01:56.919Z,9.05
2022-08-02T22:04:26.208Z,9.75
2022-08-02T22:06:54.871Z,9.02
2022-08-02T22:09:43.917Z,8.75
2022-08-02T22:12:16.532Z,8.85
2022-08-02T22:14:49.610Z,8.52
2022-08-02T22:17:46.771Z,8.57
2022-08-02T22:20:14.519Z,8.43
2022-08-02T22:22:43.795Z,7.70
2022-08-02T22:25:31.056Z,7.72
2022-08-02T22:28:34.961Z,7.82
2022-08-02T22:30:52.620Z,7.90
2022-08-02T22:36:28.541Z,7.55
2022-08-02T22:38:56.723Z,7.32
2022-08-02T22:41:24.853Z,7.30
2022-08-02T22:43:53.054Z,7.30
2022-08-02T22:46:26.460Z,7.38
2022-08-02T22:48:56.621Z,7.63
2022-08-02T22:51:25.234Z,6.82
2022-08-02T22:53:57.618Z,6.60
2022-08-02T22:56:25.826Z,6.55
2022-08-02T22:58:49.768Z,3.33
2022-08-02T22:59:03.015Z,7.25
2022-08-02T22:59:10.425Z,7.35
2022-08-02T23:01:42.336Z,6.82
2022-08-02T23:04:11.970Z,6.63
2022-08-02T23:06:40.102Z,6.45
2022-08-02T23:09:08.205Z,6.13
2022-08-02T23:11:36.391Z,6.72
2022-08-02T23:14:04.512Z,6.13
2022-08-02T23:16:49.972Z,6.47
2022-08-02T23:19:37.210Z,6.18
2022-08-02T23:22:05.394Z,6.32
2022-08-02T23:24:34.055Z,6.30
2022-08-02T23:27:02.269Z,5.72
2022-08-02T23:29:30.412Z,5.80
2022-08-02T23:31:59.005Z,6.00
2022-08-02T23:34:28.694Z,6.45
2022-08-02T23:36:56.836Z,6.03
2022-08-02T23:39:25.015Z,5.65
2022-08-02T23:41:55.137Z,5.80
2022-08-02T23:44:24.292Z,6.30
2022-08-02T23:46:52.439Z,6.00
2022-08-02T23:49:20.770Z,6.25
2022-08-02T23:51:50.409Z,5.78
2022-08-02T23:54:18.691Z,5.85
2022-08-02T23:56:46.817Z,5.50
2022-08-02T23:59:15.017Z,5.70
